createdAt,value
2023-04-18T00:00:43.177Z,9.49
2023-04-18T00:03:29.939Z,9.50
2023-04-18T00:06:15.485Z,9.49
2023-04-18T00:09:00.706Z,9.47
2023-04-18T00:11:46.173Z,9.46
2023-04-18T00:14:31.467Z,9.44
2023-04-18T00:17:16.843Z,9.42
2023-04-18T00:20:06.940Z,9.39
2023-04-18T00:22:53.265Z,9.37
2023-04-18T00:25:38.113Z,9.37
2023-04-18T00:28:23.551Z,9.36
2023-04-18T00:31:09.037Z,9.34
2023-04-18T00:33:54.273Z,9.33
2023-04-18T00:36:39.542Z,9.32
2023-04-18T00:39:24.837Z,9.31
2023-04-18T00:42:10.359Z,9.31
2023-04-18T00:44:55.570Z,9.28
2023-04-18T00:47:41.032Z,9.27
2023-04-18T00:50:26.384Z,9.27
2023-04-18T00:53:11.716Z,9.26
2023-04-18T00:55:57.628Z,9.26
2023-04-18T00:58:43.295Z,9.24
2023-04-18T01:01:28.469Z,9.25
2023-04-18T01:04:13.766Z,9.21
2023-04-18T01:07:01.028Z,9.11
2023-04-18T01:09:47.026Z,9.09
2023-04-18T01:12:31.906Z,9.11
2023-04-18T01:15:17.197Z,9.11
2023-04-18T01:18:03.581Z,9.11
2023-04-18T01:20:50.790Z,9.12
2023-04-18T01:23:35.952Z,9.09
2023-04-18T01:26:21.292Z,9.10
2023-04-18T01:29:06.859Z,9.09
2023-04-18T01:31:52.162Z,9.08
2023-04-18T01:34:37.243Z,9.04
2023-04-18T01:37:22.496Z,9.01
2023-04-18T01:40:08.669Z,9.00
2023-04-18T01:42:53.841Z,8.98
2023-04-18T01:45:39.278Z,8.95
2023-04-18T01:48:24.459Z,8.93
2023-04-18T01:51:09.920Z,8.94
2023-04-18T01:53:55.162Z,8.93
2023-04-18T01:56:40.548Z,8.91
2023-04-18T01:59:25.785Z,8.91
2023-04-18T02:02:11.484Z,8.89
2023-04-18T02:04:56.550Z,8.86
2023-04-18T02:07:42.782Z,8.82
2023-04-18T02:10:27.889Z,8.79
2023-04-18T02:13:14.525Z,8.78
2023-04-18T02:16:00.993Z,8.76
2023-04-18T02:18:47.144Z,8.74
2023-04-18T02:21:32.276Z,8.73
2023-04-18T02:24:17.883Z,8.71
2023-04-18T02:27:03.528Z,8.69
2023-04-18T02:29:48.625Z,8.65
2023-04-18T02:32:34.254Z,8.66
2023-04-18T02:35:20.522Z,8.64
2023-04-18T02:38:05.805Z,8.63
2023-04-18T02:40:51.045Z,8.61
2023-04-18T02:43:36.219Z,8.63
2023-04-18T02:46:21.668Z,8.65
2023-04-18T02:49:07.464Z,8.65
2023-04-18T02:51:58.577Z,8.62
2023-04-18T02:54:43.747Z,8.57
2023-04-18T02:57:29.012Z,8.52
2023-04-18T03:00:14.682Z,8.51
2023-04-18T03:02:59.865Z,8.52
2023-04-18T03:05:45.901Z,8.51
2023-04-18T03:08:31.180Z,8.49
2023-04-18T03:11:16.422Z,8.52
2023-04-18T03:14:01.905Z,8.53
2023-04-18T03:16:47.353Z,8.51
2023-04-18T03:19:32.486Z,8.51
2023-04-18T03:22:17.857Z,8.47
2023-04-18T03:25:03.055Z,8.49
2023-04-18T03:27:48.480Z,8.47
2023-04-18T03:30:33.623Z,8.46
2023-04-18T03:33:19.173Z,8.46
2023-04-18T03:36:05.488Z,8.44
2023-04-18T03:38:50.786Z,8.42
2023-04-18T03:41:36.153Z,8.42
2023-04-18T03:44:21.344Z,8.40
2023-04-18T03:47:06.841Z,8.39
2023-04-18T03:49:54.219Z,8.30
2023-04-18T03:52:39.496Z,8.29
2023-04-18T03:55:26.483Z,8.31
2023-04-18T03:58:11.850Z,8.31
2023-04-18T04:00:57.012Z,8.31
2023-04-18T04:03:42.513Z,8.30
2023-04-18T04:06:27.592Z,8.31
2023-04-18T04:09:13.114Z,8.32
2023-04-18T04:11:58.530Z,8.33
2023-04-18T04:14:43.727Z,8.28
2023-04-18T04:17:29.033Z,8.29
2023-04-18T04:20:14.329Z,8.31
2023-04-18T04:23:00.058Z,8.32
2023-04-18T04:25:46.355Z,8.33
2023-04-18T04:28:31.642Z,8.31
2023-04-18T04:31:16.848Z,8.31
2023-04-18T04:34:03.337Z,8.22
2023-04-18T04:36:48.606Z,8.14
2023-04-18T04:39:33.886Z,8.13
2023-04-18T04:42:19.791Z,8.15
2023-04-18T04:45:05.766Z,8.16
2023-04-18T04:47:51.065Z,8.17
2023-04-18T04:50:38.886Z,8.15
2023-04-18T04:53:28.196Z,8.19
2023-04-18T04:56:13.721Z,8.27
2023-04-18T04:58:58.850Z,8.29
2023-04-18T05:01:44.359Z,8.28
2023-04-18T05:04:29.788Z,8.30
2023-04-18T05:07:15.737Z,8.35
2023-04-18T05:10:00.931Z,8.38
2023-04-18T05:12:46.391Z,8.41
2023-04-18T05:15:31.946Z,8.44
2023-04-18T05:18:17.040Z,8.48
2023-04-18T05:21:02.541Z,8.47
2023-04-18T05:23:47.885Z,8.51
2023-04-18T05:26:32.960Z,8.45
2023-04-18T05:29:18.077Z,8.36
2023-04-18T05:32:03.624Z,8.39
2023-04-18T05:34:48.985Z,8.39
2023-04-18T05:37:34.351Z,8.42
2023-04-18T05:40:19.670Z,8.45
2023-04-18T05:43:04.608Z,8.48
2023-04-18T05:45:52.237Z,8.47
2023-04-18T05:48:37.993Z,8.42
2023-04-18T05:51:23.259Z,8.41
2023-04-18T05:54:08.287Z,8.45
2023-04-18T05:56:54.437Z,8.56
2023-04-18T05:59:39.878Z,8.57
2023-04-18T06:02:25.301Z,8.67
2023-04-18T06:05:12.495Z,8.75
2023-04-18T06:07:57.716Z,8.81
2023-04-18T06:10:42.772Z,8.87
2023-04-18T06:13:28.206Z,8.93
2023-04-18T06:16:13.720Z,8.89
2023-04-18T06:19:01.084Z,8.94
2023-04-18T06:21:47.111Z,8.96
2023-04-18T06:24:32.242Z,9.01
2023-04-18T06:27:30.211Z,9.04
2023-04-18T06:30:16.821Z,9.08
2023-04-18T06:33:02.095Z,9.14
2023-04-18T06:35:47.646Z,9.11
2023-04-18T06:38:33.924Z,9.11
2023-04-18T06:41:18.983Z,9.13
2023-04-18T06:44:04.787Z,9.20
2023-04-18T06:46:50.137Z,9.27
2023-04-18T06:49:35.637Z,9.27
2023-04-18T06:52:20.808Z,9.33
2023-04-18T06:55:07.570Z,9.38
2023-04-18T06:57:53.060Z,9.40
2023-04-18T07:00:38.062Z,9.44
2023-04-18T07:03:23.582Z,9.45
2023-04-18T07:06:10.531Z,9.47
2023-04-18T07:09:00.088Z,9.54
2023-04-18T07:11:45.463Z,9.52
2023-04-18T07:14:32.884Z,9.53
2023-04-18T07:17:19.057Z,9.57
2023-04-18T07:20:05.165Z,9.65
2023-04-18T07:22:50.507Z,9.74
2023-04-18T07:25:39.324Z,9.76
2023-04-18T07:28:24.459Z,9.77
2023-04-18T07:31:11.556Z,9.79
2023-04-18T07:33:57.409Z,9.82
2023-04-18T07:36:42.819Z,9.87
2023-04-18T07:39:28.395Z,9.86
2023-04-18T07:42:13.472Z,9.85
2023-04-18T07:44:59.022Z,9.91
2023-04-18T07:47:44.512Z,9.94
2023-04-18T07:50:30.262Z,9.93
2023-04-18T07:53:15.698Z,10.00
2023-04-18T07:56:00.810Z,10.05
2023-04-18T07:58:46.105Z,10.11
2023-04-18T08:01:31.659Z,10.15
2023-04-18T08:04:17.263Z,10.20
2023-04-18T08:07:03.068Z,10.24
2023-04-18T08:09:48.574Z,10.30
2023-04-18T08:12:33.702Z,10.45
2023-04-18T08:15:19.116Z,10.54
2023-04-18T08:18:04.490Z,10.63
2023-04-18T08:20:49.546Z,10.74
2023-04-18T08:23:35.056Z,10.82
2023-04-18T08:26:20.924Z,10.89
2023-04-18T08:29:06.366Z,10.89
2023-04-18T08:31:51.869Z,10.90
2023-04-18T08:34:38.097Z,10.94
2023-04-18T08:37:23.456Z,11.01
2023-04-18T08:40:09.217Z,11.12
2023-04-18T08:42:57.384Z,11.21
2023-04-18T08:45:44.399Z,11.31
2023-04-18T08:48:29.762Z,11.39
2023-04-18T08:51:15.235Z,11.47
2023-04-18T08:54:04.496Z,11.56
2023-04-18T08:57:12.559Z,11.64
2023-04-18T09:00:00.776Z,11.70
2023-04-18T09:02:47.159Z,11.75
2023-04-18T09:05:32.852Z,11.77
2023-04-18T09:08:24.099Z,11.75
2023-04-18T09:11:29.242Z,11.73
2023-04-18T09:14:24.511Z,11.80
2023-04-18T09:17:13.333Z,11.86
2023-04-18T09:19:59.009Z,11.90
2023-04-18T09:22:51.876Z,11.99
2023-04-18T09:25:45.302Z,11.99
2023-04-18T09:28:33.239Z,12.03
2023-04-18T09:31:19.061Z,12.09
2023-04-18T09:34:05.381Z,12.13
2023-04-18T09:37:11.035Z,12.20
2023-04-18T09:39:56.618Z,12.25
2023-04-18T09:42:42.721Z,12.28
2023-04-18T09:45:27.946Z,12.20
2023-04-18T09:48:13.375Z,12.20
2023-04-18T09:51:01.404Z,12.25
2023-04-18T09:53:50.290Z,12.26
2023-04-18T09:56:38.078Z,12.29
2023-04-18T09:59:47.762Z,12.36
2023-04-18T10:02:40.970Z,12.41
2023-04-18T10:05:28.600Z,12.41
2023-04-18T10:08:14.608Z,12.39
2023-04-18T10:10:59.789Z,12.29
2023-04-18T10:13:48.072Z,12.32
2023-04-18T10:16:34.938Z,12.44
2023-04-18T10:19:22.028Z,12.54
2023-04-18T10:22:07.293Z,12.63
2023-04-18T10:24:56.928Z,12.70
2023-04-18T10:27:48.361Z,12.73
2023-04-18T10:30:42.788Z,12.78
2023-04-18T10:33:33.794Z,12.85
2023-04-18T10:36:22.593Z,12.86
2023-04-18T10:39:22.321Z,12.84
2023-04-18T10:42:07.614Z,12.80
2023-04-18T10:45:31.031Z,12.74
2023-04-18T10:48:23.455Z,12.72
2023-04-18T10:51:21.038Z,12.71
2023-04-18T10:54:10.656Z,12.73
2023-04-18T10:56:57.892Z,12.70
2023-04-18T10:59:44.977Z,12.67
2023-04-18T11:02:32.514Z,12.65
2023-04-18T11:05:24.253Z,12.68
2023-04-18T11:08:24.638Z,12.64
2023-04-18T11:11:11.382Z,12.68
2023-04-18T11:13:58.385Z,12.76
2023-04-18T11:16:43.606Z,12.85
2023-04-18T11:19:28.794Z,12.88
2023-04-18T11:22:15.258Z,12.94
2023-04-18T11:25:01.774Z,12.95
2023-04-18T11:27:48.884Z,13.00
2023-04-18T11:30:41.637Z,13.03
2023-04-18T11:33:29.092Z,13.04
2023-04-18T11:36:14.584Z,12.96
2023-04-18T11:38:59.888Z,12.95
2023-04-18T11:41:50.455Z,12.99
2023-04-18T11:44:39.587Z,13.05
2023-04-18T11:47:26.512Z,13.09
2023-04-18T11:50:13.639Z,13.14
2023-04-18T11:52:58.779Z,13.15
2023-04-18T11:55:55.666Z,13.19
2023-04-18T11:58:42.236Z,13.19
2023-04-18T12:01:27.440Z,13.12
2023-04-18T12:04:13.135Z,13.06
2023-04-18T12:06:58.722Z,13.01
2023-04-18T12:09:43.986Z,13.00
2023-04-18T12:12:29.257Z,12.95
2023-04-18T12:15:16.663Z,12.92
2023-04-18T12:18:08.394Z,12.97
2023-04-18T12:20:54.518Z,13.03
2023-04-18T12:23:42.382Z,13.09
2023-04-18T12:26:27.626Z,13.08
2023-04-18T12:29:13.149Z,13.17
2023-04-18T12:31:58.998Z,13.28
2023-04-18T12:34:44.326Z,13.28
2023-04-18T12:37:29.678Z,13.26
2023-04-18T12:40:16.091Z,13.31
2023-04-18T12:43:03.450Z,13.28
2023-04-18T12:45:49.860Z,13.18
2023-04-18T12:48:34.989Z,13.10
2023-04-18T12:51:21.874Z,12.99
2023-04-18T12:54:06.733Z,12.90
2023-04-18T12:56:51.987Z,12.89
2023-04-18T12:59:37.335Z,12.87
2023-04-18T13:05:31.697Z,12.85
2023-04-18T13:08:18.273Z,12.91
2023-04-18T13:11:03.336Z,12.87
2023-04-18T13:13:48.667Z,12.88
2023-04-18T13:16:34.209Z,12.89
2023-04-18T13:19:19.368Z,12.92
2023-04-18T13:22:05.006Z,13.01
2023-04-18T13:24:50.035Z,13.03
2023-04-18T13:27:35.324Z,13.08
2023-04-18T13:30:20.606Z,13.12
2023-04-18T13:33:05.935Z,13.17
2023-04-18T13:35:51.189Z,13.22
2023-04-18T13:38:36.447Z,13.28
2023-04-18T13:41:22.550Z,13.29
2023-04-18T13:44:08.251Z,13.30
2023-04-18T13:46:53.312Z,13.31
2023-04-18T13:49:38.794Z,13.31
2023-04-18T13:52:24.156Z,13.25
2023-04-18T13:55:10.716Z,13.15
2023-04-18T13:57:56.024Z,13.12
2023-04-18T14:00:41.637Z,13.12
2023-04-18T14:03:26.950Z,13.07
2023-04-18T14:06:12.367Z,13.08
2023-04-18T14:08:58.769Z,13.12
2023-04-18T14:11:44.752Z,13.16
2023-04-18T14:14:30.414Z,13.05
2023-04-18T14:17:15.654Z,12.99
2023-04-18T14:20:01.278Z,12.95
2023-04-18T14:22:47.032Z,12.91
2023-04-18T14:25:32.053Z,12.88
2023-04-18T14:28:19.090Z,12.86
2023-04-18T14:31:06.457Z,12.82
2023-04-18T14:33:52.196Z,12.73
2023-04-18T14:36:37.524Z,12.72
2023-04-18T14:39:22.950Z,12.74
2023-04-18T14:42:08.176Z,12.80
2023-04-18T14:44:53.370Z,12.84
2023-04-18T14:47:39.516Z,12.80
2023-04-18T14:50:25.023Z,12.84
2023-04-18T14:53:11.050Z,12.86
2023-04-18T14:55:56.539Z,12.82
2023-04-18T14:58:42.990Z,12.72
2023-04-18T15:01:28.302Z,12.66
2023-04-18T15:04:13.893Z,12.68
2023-04-18T15:06:59.413Z,12.74
2023-04-18T15:09:44.710Z,12.78
2023-04-18T15:12:30.546Z,12.76
2023-04-18T15:15:16.162Z,12.77
2023-04-18T15:18:02.623Z,12.70
2023-04-18T15:20:47.806Z,12.72
2023-04-18T15:23:34.137Z,12.69
2023-04-18T15:26:19.081Z,12.62
2023-04-18T15:29:04.641Z,12.67
2023-04-18T15:31:50.140Z,12.65
2023-04-18T15:34:35.915Z,12.64
2023-04-18T15:37:21.695Z,12.64
2023-04-18T15:40:10.378Z,12.68
2023-04-18T15:42:57.755Z,12.68
2023-04-18T15:45:44.539Z,12.66
2023-04-18T15:48:34.017Z,12.61
2023-04-18T15:51:19.451Z,12.62
2023-04-18T15:54:04.793Z,12.61
2023-04-18T15:56:49.985Z,12.58
2023-04-18T15:59:36.028Z,12.58
2023-04-18T16:02:21.418Z,12.62
2023-04-18T16:05:07.746Z,12.67
2023-04-18T16:07:53.860Z,12.67
2023-04-18T16:10:38.795Z,12.59
2023-04-18T16:13:24.212Z,12.56
2023-04-18T16:16:09.451Z,12.55
2023-04-18T16:18:54.866Z,12.53
2023-04-18T16:21:40.750Z,12.54
2023-04-18T16:24:26.042Z,12.49
2023-04-18T16:27:11.374Z,12.54
2023-04-18T16:29:56.600Z,12.48
2023-04-18T16:32:41.977Z,12.36
2023-04-18T16:35:27.428Z,12.29
2023-04-18T16:38:12.844Z,12.36
2023-04-18T16:41:00.562Z,12.42
2023-04-18T16:43:45.874Z,12.46
2023-04-18T16:46:32.245Z,12.40
2023-04-18T16:49:19.130Z,12.36
2023-04-18T16:52:04.504Z,12.36
2023-04-18T16:54:51.973Z,12.43
2023-04-18T16:57:38.120Z,12.47
2023-04-18T17:00:23.559Z,12.43
2023-04-18T17:03:10.116Z,12.38
2023-04-18T17:05:55.970Z,12.40
2023-04-18T17:08:41.187Z,12.40
2023-04-18T17:11:26.654Z,12.42
2023-04-18T17:14:12.125Z,12.41
2023-04-18T17:16:57.370Z,12.40
2023-04-18T17:19:42.857Z,12.39
2023-04-18T17:22:29.421Z,12.35
2023-04-18T17:25:15.922Z,12.27
2023-04-18T17:28:02.320Z,12.21
2023-04-18T17:30:47.735Z,12.18
2023-04-18T17:33:33.030Z,12.17
2023-04-18T17:36:18.211Z,12.10
2023-04-18T17:39:06.583Z,12.12
2023-04-18T17:41:52.099Z,12.13
2023-04-18T17:44:39.841Z,12.08
2023-04-18T17:47:24.960Z,11.99
2023-04-18T17:50:10.634Z,12.00
2023-04-18T17:52:56.414Z,12.01
2023-04-18T17:55:41.836Z,12.05
2023-04-18T17:58:27.275Z,12.07
2023-04-18T18:01:17.442Z,12.08
2023-04-18T18:04:02.692Z,12.05
2023-04-18T18:06:54.881Z,12.02
2023-04-18T18:09:41.624Z,12.00
2023-04-18T18:12:26.986Z,11.96
2023-04-18T18:15:12.521Z,11.93
2023-04-18T18:17:58.091Z,11.95
2023-04-18T18:20:43.789Z,11.93
2023-04-18T18:23:29.051Z,11.87
2023-04-18T18:26:14.531Z,11.89
2023-04-18T18:28:59.742Z,11.85
2023-04-18T18:31:45.078Z,11.86
2023-04-18T18:34:32.080Z,11.82
2023-04-18T18:37:17.267Z,11.80
2023-04-18T18:40:04.933Z,11.78
2023-04-18T18:42:51.502Z,11.73
2023-04-18T18:45:38.117Z,11.69
2023-04-18T18:48:24.235Z,11.61
2023-04-18T18:51:09.849Z,11.55
2023-04-18T18:53:56.790Z,11.47
2023-04-18T18:56:42.756Z,11.38
2023-04-18T18:59:27.675Z,11.29
2023-04-18T19:02:12.928Z,11.21
2023-04-18T19:04:58.491Z,11.14
2023-04-18T19:07:43.898Z,11.11
2023-04-18T19:10:29.478Z,11.10
2023-04-18T19:13:14.627Z,11.09
2023-04-18T19:15:59.989Z,11.04
2023-04-18T19:18:47.377Z,11.03
2023-04-18T19:21:32.422Z,10.96
2023-04-18T19:24:18.537Z,10.80
2023-04-18T19:27:03.972Z,10.79
2023-04-18T19:29:49.068Z,10.74
2023-04-18T19:32:34.224Z,10.68
2023-04-18T19:35:19.543Z,10.67
2023-04-18T19:38:05.166Z,10.52
2023-04-18T19:40:50.567Z,10.49
2023-04-18T19:43:36.002Z,10.50
2023-04-18T19:46:21.435Z,10.48
2023-04-18T19:49:06.905Z,10.37
2023-04-18T19:51:52.827Z,10.37
2023-04-18T19:54:37.956Z,10.34
2023-04-18T19:57:24.321Z,10.35
2023-04-18T20:00:12.194Z,10.34
2023-04-18T20:02:58.966Z,10.29
2023-04-18T20:05:44.791Z,10.23
2023-04-18T20:08:30.209Z,10.24
2023-04-18T20:11:15.851Z,10.19
2023-04-18T20:14:01.221Z,10.13
2023-04-18T20:16:49.619Z,10.03
2023-04-18T20:19:35.765Z,9.96
2023-04-18T20:22:21.004Z,9.78
2023-04-18T20:25:07.169Z,9.72
2023-04-18T20:27:52.517Z,9.57
2023-04-18T20:30:37.929Z,9.58
2023-04-18T20:33:23.209Z,9.65
2023-04-18T20:36:08.625Z,9.41
2023-04-18T20:38:53.794Z,9.30
2023-04-18T20:41:48.946Z,9.38
2023-04-18T20:44:34.658Z,9.42
2023-04-18T20:47:20.137Z,9.42
2023-04-18T20:50:05.736Z,9.37
2023-04-18T20:52:51.049Z,9.31
2023-04-18T20:55:36.457Z,9.31
2023-04-18T20:58:21.772Z,9.28
2023-04-18T21:01:07.630Z,9.27
2023-04-18T21:03:53.268Z,9.25
2023-04-18T21:06:38.964Z,9.15
2023-04-18T21:09:24.354Z,9.13
2023-04-18T21:12:09.881Z,9.13
2023-04-18T21:14:55.286Z,9.01
2023-04-18T21:17:40.583Z,8.98
2023-04-18T21:20:25.950Z,8.98
2023-04-18T21:23:11.276Z,8.88
2023-04-18T21:25:56.857Z,8.85
2023-04-18T21:29:11.729Z,8.78
2023-04-18T21:31:57.240Z,8.75
2023-04-18T21:34:42.764Z,8.74
2023-04-18T21:37:28.194Z,8.70
2023-04-18T21:40:13.965Z,8.61
2023-04-18T21:42:59.204Z,8.56
2023-04-18T21:45:46.302Z,8.51
2023-04-18T21:48:31.380Z,8.36
2023-04-18T21:51:17.132Z,8.29
2023-04-18T21:54:03.709Z,8.21
2023-04-18T21:56:48.712Z,8.18
2023-04-18T21:59:34.103Z,8.16
2023-04-18T22:02:19.559Z,8.16
2023-04-18T22:05:05.082Z,8.10
2023-04-18T22:07:58.164Z,8.08
2023-04-18T22:10:45.239Z,8.07
2023-04-18T22:13:33.145Z,7.98
2023-04-18T22:16:18.155Z,7.92
2023-04-18T22:19:04.360Z,7.90
2023-04-18T22:21:49.248Z,7.87
2023-04-18T22:24:34.441Z,7.63
2023-04-18T22:27:19.777Z,7.64
2023-04-18T22:30:05.670Z,7.64
2023-04-18T22:32:51.101Z,7.65
2023-04-18T22:35:36.439Z,7.63
2023-04-18T22:38:21.901Z,7.61
2023-04-18T22:41:07.974Z,7.28
2023-04-18T22:43:53.174Z,7.29
2023-04-18T22:46:38.811Z,7.29
2023-04-18T22:49:24.346Z,7.33
2023-04-18T22:52:09.753Z,7.36
2023-04-18T22:54:55.031Z,7.30
2023-04-18T22:57:40.508Z,7.33
2023-04-18T23:00:25.889Z,7.33
2023-04-18T23:03:11.458Z,7.33
2023-04-18T23:05:56.996Z,7.33
2023-04-18T23:08:43.114Z,7.34
2023-04-18T23:11:28.346Z,7.34
2023-04-18T23:14:15.758Z,7.23
2023-04-18T23:17:01.414Z,7.31
2023-04-18T23:19:46.485Z,7.29
2023-04-18T23:22:31.853Z,7.27
2023-04-18T23:25:17.857Z,7.29
2023-04-18T23:28:02.945Z,7.34
2023-04-18T23:30:50.137Z,7.21
2023-04-18T23:33:35.192Z,7.20
2023-04-18T23:36:20.687Z,7.12
2023-04-18T23:39:07.049Z,7.13
2023-04-18T23:41:52.446Z,7.10
2023-04-18T23:44:37.603Z,7.15
2023-04-18T23:47:22.876Z,7.18
2023-04-18T23:50:08.594Z,7.10
2023-04-18T23:52:54.046Z,7.16
2023-04-18T23:55:39.220Z,7.09
2023-04-18T23:58:26.328Z,7.08
